Time;durP1;ratioP1;P1;durP2;ratioP2;P2;SDS_P1;SDS_P2;PMS_P1;PMS_P2;Temp;Humidity;BMP_temperature;BMP_pressure;BME280_temperature;BME280_humidity;BME280_pressure;Samples;Min_cycle;Max_cycle;Signal;HPM_P1;HPM_P2
2024/01/29 00:01:04;;;;;;;2.83;2.10;;;;;;;-5.72;94.38;101739.19;6205129;23;20078;-56
2024/01/29 00:03:35;;;;;;;2.42;2.00;;;;;;;-5.49;94.13;101738.34;6192454;23;20036;-56
2024/01/29 00:06:07;;;;;;;2.92;2.30;;;;;;;-5.28;94.02;101738.97;6206967;23;20043;-55
2024/01/29 00:08:38;;;;;;;3.10;2.30;;;;;;;-5.06;93.61;101740.50;6191188;23;20735;-57
2024/01/29 00:11:08;;;;;;;2.75;2.05;;;;;;;-4.89;92.96;101744.19;6207487;23;20116;-56
2024/01/29 00:13:39;;;;;;;3.88;2.22;;;;;;;-4.74;92.31;101739.28;6192422;23;20453;-56
2024/01/29 00:16:09;;;;;;;2.35;1.90;;;;;;;-4.61;91.28;101747.00;6206536;23;20032;-57
2024/01/29 00:18:40;;;;;;;3.00;2.13;;;;;;;-4.54;90.95;101728.78;6191881;23;20107;-57
2024/01/29 00:21:12;;;;;;;2.60;2.33;;;;;;;-4.19;90.74;101753.25;6206548;23;20020;-57
2024/01/29 00:23:43;;;;;;;3.17;2.70;;;;;;;-3.96;90.33;101752.22;6191827;23;20107;-56
2024/01/29 00:26:13;;;;;;;3.85;2.30;;;;;;;-3.92;89.62;101749.97;6202414;23;20616;-55
2024/01/29 00:28:44;;;;;;;2.72;2.33;;;;;;;-3.85;89.17;101755.47;6207810;23;20062;-57
2024/01/29 00:31:16;;;;;;;2.97;2.03;;;;;;;-3.78;89.11;101757.66;6191846;23;20073;-58
2024/01/29 00:33:49;;;;;;;6.13;3.72;;;;;;;-3.81;88.56;101747.22;6206989;23;20078;-57
2024/01/29 00:36:21;;;;;;;7.80;6.00;;;;;;;-3.75;87.75;101760.38;6191544;23;20066;-57
2024/01/29 00:38:51;;;;;;;10.93;4.60;;;;;;;-3.74;87.21;101757.06;6206779;23;20040;-57
2024/01/29 00:41:22;;;;;;;5.50;4.10;;;;;;;-3.73;86.69;101766.50;6191693;23;20150;-55
2024/01/29 00:43:52;;;;;;;7.03;5.07;;;;;;;-3.69;86.21;101764.25;6207360;23;20055;-57
2024/01/29 00:46:23;;;;;;;6.32;4.38;;;;;;;-3.52;86.30;101762.78;6191523;23;20108;-56
2024/01/29 00:48:53;;;;;;;7.10;4.30;;;;;;;-3.37;85.91;101768.00;6206745;23;20023;-57
2024/01/29 00:51:25;;;;;;;5.50;2.90;;;;;;;-3.30;84.89;101756.47;6191603;23;20457;-56
2024/01/29 00:53:56;;;;;;;3.20;2.58;;;;;;;-3.19;85.27;101752.94;6206737;23;20054;-57
2024/01/29 00:56:26;;;;;;;4.07;2.10;;;;;;;-3.04;85.05;101743.66;6190806;23;20028;-56
2024/01/29 00:58:57;;;;;;;2.20;2.00;;;;;;;-2.86;84.57;101749.03;6207334;23;20043;-58
2024/01/29 01:01:27;;;;;;;4.53;2.70;;;;;;;-2.76;83.48;101754.72;6190811;23;20016;-54
2024/01/29 01:03:57;;;;;;;3.20;2.00;;;;;;;-2.75;82.70;101751.34;6207254;23;20030;-56
2024/01/29 01:06:30;;;;;;;5.43;2.17;;;;;;;-2.56;83.24;101754.25;6191214;23;20332;-55
2024/01/29 01:09:00;;;;;;;5.25;2.38;;;;;;;-2.38;82.17;101744.22;6206517;23;20027;-57
2024/01/29 01:11:31;;;;;;;3.10;1.90;;;;;;;-2.24;81.47;101748.50;6191887;23;20024;-55
2024/01/29 01:14:01;;;;;;;3.85;2.50;;;;;;;-2.12;81.33;101739.75;6206377;23;20020;-57
2024/01/29 01:16:32;;;;;;;2.72;1.95;;;;;;;-1.98;81.27;101746.56;6191177;23;20345;-57
2024/01/29 01:19:02;;;;;;;2.58;1.80;;;;;;;-1.77;81.38;101737.56;6206535;23;20107;-58
2024/01/29 01:21:34;;;;;;;2.55;1.80;;;;;;;-1.54;80.91;101745.69;6190871;23;20189;-57
2024/01/29 01:24:06;;;;;;;2.17;1.70;;;;;;;-1.34;80.07;101739.97;6203937;23;20016;-58
2024/01/29 01:26:37;;;;;;;2.45;2.00;;;;;;;-1.85;79.82;101626.06;6191429;23;20020;-59
2024/01/29 01:29:08;;;;;;;4.53;1.70;;;;;;;-1.14;79.06;101733.38;6206455;23;20093;-58
2024/01/29 01:31:38;;;;;;;2.95;2.03;;;;;;;-1.07;78.43;101732.03;6190115;23;20101;-60
2024/01/29 01:34:08;;;;;;;2.20;2.00;;;;;;;-1.05;78.48;101727.84;6206365;23;20760;-58
2024/01/29 01:36:40;;;;;;;3.20;2.40;;;;;;;-1.03;78.84;101726.25;6190215;23;20031;-58
2024/01/29 01:39:11;;;;;;;5.57;2.78;;;;;;;-1.00;78.70;101736.69;6205786;23;20090;-57
2024/01/29 01:41:48;;;;;;;7.20;3.85;;;;;;;-1.00;78.16;101726.44;6190841;23;20020;-58
2024/01/29 01:44:18;;;;;;;5.72;3.92;;;;;;;-1.19;78.58;101692.88;6190835;23;20020;-57
2024/01/29 01:46:49;;;;;;;7.28;3.95;;;;;;;-1.04;78.26;101727.06;6206257;23;20082;-57
2024/01/29 01:49:21;;;;;;;5.20;2.47;;;;;;;-1.58;77.83;101641.19;6190819;23;20058;-57
2024/01/29 01:51:53;;;;;;;2.42;1.50;;;;;;;-1.10;77.41;101719.00;6205887;23;20024;-58
2024/01/29 01:54:24;;;;;;;1.70;1.52;;;;;;;-1.04;77.40;101721.94;6190856;23;20024;-56
2024/01/29 01:56:54;;;;;;;1.73;1.40;;;;;;;-1.07;76.89;101724.34;6205478;23;20028;-59
2024/01/29 01:59:26;;;;;;;1.40;1.30;;;;;;;-0.99;76.36;101712.78;6191078;23;20044;-58
2024/01/29 02:01:58;;;;;;;2.05;1.50;;;;;;;-0.99;76.72;101717.94;6206595;23;20679;-60
2024/01/29 02:04:28;;;;;;;1.40;1.30;;;;;;;-0.89;76.71;101711.59;6191237;23;20052;-56
2024/01/29 02:07:01;;;;;;;1.83;1.48;;;;;;;-0.85;76.47;101710.06;6205521;23;20024;-58
2024/01/29 02:09:33;;;;;;;5.05;2.80;;;;;;;-0.80;76.18;101706.06;6190550;23;20038;-57
2024/01/29 02:12:03;;;;;;;7.18;3.60;;;;;;;-0.83;76.28;101703.34;6205398;23;20034;-58
2024/01/29 02:14:34;;;;;;;2.70;1.70;;;;;;;-0.95;76.04;101701.91;6191394;23;20541;-56
2024/01/29 02:17:04;;;;;;;2.38;1.60;;;;;;;-1.00;75.85;101698.22;6205358;23;20054;-59
2024/01/29 02:19:35;;;;;;;3.88;2.47;;;;;;;-0.96;76.25;101697.56;6190398;23;20039;-58
2024/01/29 02:22:07;;;;;;;1.63;1.40;;;;;;;-0.88;75.92;101695.41;6204704;23;20107;-57
2024/01/29 02:24:45;;;;;;;1.63;1.40;;;;;;;-0.79;76.10;101690.75;6183740;23;20020;-58
2024/01/29 02:27:15;;;;;;;1.92;1.40;;;;;;;-0.65;75.76;101683.75;6169022;23;20016;-57
2024/01/29 02:29:46;;;;;;;2.75;1.65;;;;;;;-0.46;76.27;101686.47;6203785;23;20054;-60
2024/01/29 02:32:17;;;;;;;2.72;1.40;;;;;;;-0.25;75.79;101680.66;6188401;23;20051;-59
2024/01/29 02:34:48;;;;;;;2.95;1.50;;;;;;;-0.11;75.75;101684.78;6204281;23;20028;-57
2024/01/29 02:37:18;;;;;;;3.08;2.05;;;;;;;-0.04;75.59;101679.16;6187871;23;20052;-57
2024/01/29 02:39:50;;;;;;;3.22;1.83;;;;;;;0.01;75.15;101676.81;6202877;23;20020;-58
2024/01/29 02:42:21;;;;;;;3.83;2.30;;;;;;;-0.22;75.05;101635.47;6187737;23;20026;-60
2024/01/29 02:44:52;;;;;;;5.68;2.53;;;;;;;0.15;75.25;101672.34;6202848;23;20032;-59
2024/01/29 02:47:22;;;;;;;3.60;2.33;;;;;;;0.13;75.73;101673.97;6187018;23;20024;-58
2024/01/29 02:49:53;;;;;;;3.78;2.50;;;;;;;0.12;75.59;101674.78;6203706;23;20667;-59
2024/01/29 02:52:23;;;;;;;4.90;2.70;;;;;;;0.23;75.86;101671.03;6187988;23;20031;-59
2024/01/29 02:54:55;;;;;;;2.83;2.30;;;;;;;0.40;75.43;101665.00;6202710;23;20026;-58
2024/01/29 02:57:26;;;;;;;3.38;2.70;;;;;;;0.54;75.35;101662.19;6188197;23;20051;-59
2024/01/29 02:59:56;;;;;;;4.43;2.70;;;;;;;0.65;74.87;101650.72;6202431;23;20024;-59
2024/01/29 03:02:27;;;;;;;2.90;2.28;;;;;;;0.62;74.64;101650.56;6188043;23;20435;-58
2024/01/29 03:04:57;;;;;;;8.20;4.95;;;;;;;0.49;74.15;101653.38;6203931;23;20667;-59
2024/01/29 03:07:28;;;;;;;6.20;2.85;;;;;;;0.42;75.14;101647.97;6187933;23;20020;-57
2024/01/29 03:10:00;;;;;;;6.70;3.78;;;;;;;0.51;75.12;101636.34;6202313;23;20023;-58
2024/01/29 03:12:30;;;;;;;5.57;2.97;;;;;;;0.58;75.01;101638.41;6188020;23;20028;-58
2024/01/29 03:15:01;;;;;;;4.57;2.90;;;;;;;0.63;75.16;101636.91;6202686;23;20380;-59
2024/01/29 03:17:34;;;;;;;5.82;2.58;;;;;;;0.43;74.08;101639.44;6187906;23;20017;-59
2024/01/29 03:20:05;;;;;;;5.05;2.63;;;;;;;0.07;74.14;101633.41;6203018;23;20039;-60
2024/01/29 03:22:36;;;;;;;4.88;3.05;;;;;;;-0.06;74.67;101634.50;6187737;23;20078;-59
2024/01/29 03:25:09;;;;;;;4.28;3.20;;;;;;;-0.34;75.09;101605.72;6202540;23;20024;-59
2024/01/29 03:27:39;;;;;;;4.90;2.70;;;;;;;-0.29;75.26;101625.69;6187413;23;20024;-60
2024/01/29 03:30:10;;;;;;;5.40;2.70;;;;;;;-0.10;75.84;101617.22;6201218;23;20026;-58
2024/01/29 03:32:41;;;;;;;5.35;2.60;;;;;;;-0.01;75.36;101622.78;6187213;23;20103;-58
2024/01/29 03:35:12;;;;;;;4.65;2.55;;;;;;;-0.18;75.65;101621.06;6203122;23;20052;-58
2024/01/29 03:37:45;;;;;;;2.90;2.28;;;;;;;-0.21;76.00;101626.06;6189806;23;20098;-60
2024/01/29 03:40:17;;;;;;;4.72;2.42;;;;;;;-0.20;76.51;101622.72;6190070;23;20020;-58
2024/01/29 03:42:48;;;;;;;3.97;2.50;;;;;;;-0.11;76.45;101617.13;6205347;23;20453;-58
2024/01/29 03:45:18;;;;;;;4.18;2.30;;;;;;;-0.16;76.07;101614.31;6189743;23;20046;-57
2024/01/29 03:47:49;;;;;;;4.22;2.60;;;;;;;-0.11;77.06;101606.84;6204954;23;20074;-59
2024/01/29 03:50:19;;;;;;;2.72;2.10;;;;;;;-0.19;76.22;101609.03;6189123;23;20090;-58
2024/01/29 03:52:50;;;;;;;6.05;3.25;;;;;;;-0.26;76.52;101605.28;6205475;23;20016;-59
2024/01/29 03:55:22;;;;;;;6.55;3.72;;;;;;;-0.30;76.93;101599.91;6189439;23;20062;-60
2024/01/29 03:57:53;;;;;;;8.07;5.22;;;;;;;-0.24;76.59;101595.09;6204652;23;20066;-59
2024/01/29 04:00:26;;;;;;;6.28;3.92;;;;;;;-0.27;76.19;101587.25;6189426;23;20024;-58
2024/01/29 04:02:56;;;;;;;4.82;3.10;;;;;;;-0.38;76.24;101570.41;6204670;23;20028;-58
2024/01/29 04:05:27;;;;;;;5.35;3.00;;;;;;;-0.25;76.74;101583.94;6189523;23;20107;-59
2024/01/29 04:07:57;;;;;;;6.53;3.25;;;;;;;-0.25;76.54;101577.91;6205277;23;20034;-58
2024/01/29 04:10:29;;;;;;;4.43;3.10;;;;;;;-0.15;76.72;101580.13;6189347;23;20058;-58
2024/01/29 04:13:00;;;;;;;4.97;3.17;;;;;;;-0.09;76.71;101580.41;6204470;23;20445;-58
2024/01/29 04:15:30;;;;;;;5.20;3.38;;;;;;;-0.06;76.73;101570.28;6189513;23;20407;-58
2024/01/29 04:18:01;;;;;;;19.08;8.98;;;;;;;-0.05;76.29;101571.16;6204426;23;20314;-58
2024/01/29 04:20:31;;;;;;;8.70;5.32;;;;;;;-0.10;76.39;101568.41;6189598;23;20028;-57
2024/01/29 04:23:02;;;;;;;13.60;7.07;;;;;;;-0.18;76.11;101559.41;6204946;23;20099;-58
2024/01/29 04:25:34;;;;;;;12.90;6.63;;;;;;;-0.20;78.16;101566.19;6189179;23;20512;-58
2024/01/29 04:28:04;;;;;;;13.07;7.78;;;;;;;-0.36;79.56;101563.69;6204028;23;20456;-57
2024/01/29 04:30:35;;;;;;;14.73;8.55;;;;;;;-0.37;80.33;101561.94;6189074;23;20051;-60
2024/01/29 04:33:05;;;;;;;15.05;8.82;;;;;;;-0.38;80.46;101570.41;6204447;23;20028;-60
2024/01/29 04:35:37;;;;;;;19.23;10.77;;;;;;;-0.43;80.82;101559.91;6189371;23;20207;-60
2024/01/29 04:38:07;;;;;;;17.27;9.88;;;;;;;-0.51;80.78;101567.25;6204909;23;20024;-63
2024/01/29 04:40:41;;;;;;;16.60;9.02;;;;;;;-0.49;81.11;101563.06;6188869;23;20048;-61
2024/01/29 04:43:11;;;;;;;17.63;9.60;;;;;;;-0.45;81.31;101570.13;6204417;23;20020;-59
2024/01/29 04:45:42;;;;;;;18.98;11.18;;;;;;;-0.49;81.24;101568.22;6189224;23;20112;-60
2024/01/29 04:48:12;;;;;;;22.00;11.48;;;;;;;-0.53;81.42;101563.72;6202779;23;20020;-59
2024/01/29 04:50:43;;;;;;;24.27;12.73;;;;;;;-0.58;81.83;101567.75;6204466;23;20087;-59
2024/01/29 04:53:13;;;;;;;22.50;12.10;;;;;;;-0.58;82.32;101570.31;6197535;23;20719;-57
2024/01/29 04:55:46;;;;;;;30.25;14.50;;;;;;;-0.58;82.27;101575.44;6204695;23;20043;-56
2024/01/29 04:58:17;;;;;;;15.45;8.63;;;;;;;-0.56;82.07;101568.72;6189212;23;20027;-59
2024/01/29 05:00:47;;;;;;;13.60;6.60;;;;;;;-0.62;82.27;101565.84;6203880;23;20422;-59
2024/01/29 05:03:18;;;;;;;11.32;6.63;;;;;;;-0.69;82.05;101576.63;6189349;23;20110;-58
2024/01/29 05:05:48;;;;;;;12.20;6.90;;;;;;;-0.69;82.31;101579.19;6203601;23;20085;-57
2024/01/29 05:08:19;;;;;;;10.88;6.47;;;;;;;-0.72;82.56;101567.06;6189014;23;20826;-56
2024/01/29 05:10:52;;;;;;;11.05;6.20;;;;;;;-0.76;82.42;101579.66;6204613;23;20595;-59
2024/01/29 05:13:22;;;;;;;9.88;6.45;;;;;;;-0.77;82.29;101580.50;6188293;23;20595;-58
2024/01/29 05:15:52;;;;;;;10.43;5.53;;;;;;;-0.77;83.18;101585.63;6203898;23;20043;-59
2024/01/29 05:18:23;;;;;;;10.13;5.35;;;;;;;-0.89;83.11;101581.63;6188933;23;20039;-59
2024/01/29 05:20:53;;;;;;;9.07;5.47;;;;;;;-0.95;83.37;101576.19;6203580;23;20020;-57
2024/01/29 05:23:24;;;;;;;8.23;5.03;;;;;;;-0.90;84.21;101573.81;6188664;23;20016;-56
2024/01/29 05:25:57;;;;;;;8.50;4.72;;;;;;;-0.94;84.34;101574.50;6204525;23;20051;-59
2024/01/29 05:28:27;;;;;;;8.07;5.13;;;;;;;-1.02;84.39;101579.22;6187402;23;20059;-58
2024/01/29 05:30:57;;;;;;;7.70;4.85;;;;;;;-1.04;84.37;101578.25;6202210;23;20120;-57
2024/01/29 05:33:28;;;;;;;8.73;4.30;;;;;;;-1.05;84.46;101583.31;6188903;23;20139;-57
2024/01/29 05:35:58;;;;;;;6.95;4.45;;;;;;;-1.06;84.61;101581.56;6203575;23;20035;-58
2024/01/29 05:38:31;;;;;;;7.05;4.65;;;;;;;-1.06;84.45;101576.41;6188733;23;20051;-58
2024/01/29 05:41:03;;;;;;;7.82;4.40;;;;;;;-1.07;84.82;101578.13;6203560;23;20116;-57
2024/01/29 05:43:33;;;;;;;7.78;4.15;;;;;;;-1.07;84.53;101580.69;6188821;23;20087;-58
2024/01/29 05:46:04;;;;;;;8.00;4.72;;;;;;;-1.09;84.90;101582.28;6203024;23;20078;-58
2024/01/29 05:48:34;;;;;;;6.82;4.00;;;;;;;-1.20;84.86;101579.16;6188150;23;20027;-58
2024/01/29 05:51:05;;;;;;;7.80;3.88;;;;;;;-1.29;85.11;101577.78;6202472;23;20059;-56
2024/01/29 05:53:35;;;;;;;6.32;3.70;;;;;;;-1.45;85.62;101582.09;6188775;23;20039;-56
2024/01/29 05:56:08;;;;;;;5.47;3.60;;;;;;;-1.51;86.72;101576.66;6203179;23;20066;-54
2024/01/29 05:58:40;;;;;;;6.32;3.95;;;;;;;-1.57;87.33;101584.03;6188210;23;20023;-57
2024/01/29 06:01:11;;;;;;;5.78;3.15;;;;;;;-1.60;87.43;101587.31;6202190;23;20504;-57
2024/01/29 06:03:41;;;;;;;3.40;2.50;;;;;;;-1.78;88.12;101582.03;6188026;23;20020;-52
2024/01/29 06:06:11;;;;;;;4.55;2.25;;;;;;;-1.90;89.63;101586.47;6202357;23;20020;-56
2024/01/29 06:08:42;;;;;;;5.28;2.83;;;;;;;-1.92;91.14;101582.97;6187635;23;20074;-56
2024/01/29 06:11:14;;;;;;;4.63;2.50;;;;;;;-1.93;91.65;101586.31;6202079;23;20749;-55
2024/01/29 06:13:44;;;;;;;5.75;3.92;;;;;;;-1.92;92.73;101590.66;6204283;23;20052;-56
2024/01/29 06:16:22;;;;;;;5.18;2.88;;;;;;;-1.93;92.63;101606.81;6188417;23;20020;-55
2024/01/29 06:18:53;;;;;;;5.90;3.30;;;;;;;-2.33;93.25;101522.66;6202098;23;20095;-57
2024/01/29 06:21:23;;;;;;;4.05;2.50;;;;;;;-2.00;93.55;101579.09;6187867;23;20047;-58
2024/01/29 06:23:54;;;;;;;4.90;3.03;;;;;;;-2.00;93.71;101589.34;6203326;23;20115;-56
2024/01/29 06:26:26;;;;;;;5.40;3.40;;;;;;;-2.05;93.42;101590.75;6186701;23;20016;-57
2024/01/29 06:28:56;;;;;;;7.40;4.32;;;;;;;-2.06;94.12;101591.56;6203843;23;20102;-58
2024/01/29 06:31:27;;;;;;;6.82;4.28;;;;;;;-2.03;94.47;101596.84;6187567;23;20625;-57
2024/01/29 06:33:57;;;;;;;10.75;6.13;;;;;;;-2.00;94.15;101590.25;6203455;23;20024;-56
2024/01/29 06:36:28;;;;;;;10.98;6.22;;;;;;;-1.98;94.25;101598.00;6188207;23;20081;-56
2024/01/29 06:38:59;;;;;;;5.43;3.15;;;;;;;-1.97;94.02;101592.97;6202283;23;20032;-56
2024/01/29 06:41:31;;;;;;;2.90;2.05;;;;;;;-2.06;92.87;101594.13;6187957;23;20574;-57
2024/01/29 06:44:02;;;;;;;4.22;2.40;;;;;;;-2.05;93.40;101590.75;6203766;23;20058;-57
2024/01/29 06:46:32;;;;;;;4.78;2.67;;;;;;;-2.08;92.78;101590.59;6188358;23;20043;-55
2024/01/29 06:49:02;;;;;;;3.65;2.50;;;;;;;-2.13;92.67;101586.91;6202106;23;20019;-56
2024/01/29 06:51:33;;;;;;;3.97;2.15;;;;;;;-2.21;92.41;101592.47;6187372;23;20026;-55
2024/01/29 06:54:03;;;;;;;4.10;2.40;;;;;;;-2.27;92.74;101583.53;6199490;23;20020;-59
2024/01/29 06:56:35;;;;;;;4.10;2.50;;;;;;;-2.40;92.99;101569.19;6188166;23;20021;-56
2024/01/29 06:59:06;;;;;;;3.45;2.25;;;;;;;-2.34;93.04;101579.78;6203302;23;20062;-57
2024/01/29 07:01:37;;;;;;;6.25;2.63;;;;;;;-2.40;93.04;101579.41;6188121;23;20608;-58
2024/01/29 07:04:08;;;;;;;5.32;2.47;;;;;;;-2.49;93.37;101571.22;6202784;23;20034;-57
2024/01/29 07:06:38;;;;;;;6.25;2.75;;;;;;;-2.45;93.16;101588.50;6187579;23;20024;-58
2024/01/29 07:09:08;;;;;;;7.53;2.17;;;;;;;-2.53;93.83;101584.63;6202407;23;20027;-57
2024/01/29 07:11:40;;;;;;;5.60;3.13;;;;;;;-2.64;94.13;101584.91;6187853;23;20024;-58
2024/01/29 07:14:11;;;;;;;6.38;2.80;;;;;;;-2.72;94.58;101573.34;6203127;23;20101;-58
2024/01/29 07:16:42;;;;;;;6.18;3.03;;;;;;;-2.76;95.60;101580.75;6187364;23;20519;-58
2024/01/29 07:19:13;;;;;;;3.45;2.10;;;;;;;-2.87;95.40;101587.78;6202113;23;20065;-57
2024/01/29 07:21:43;;;;;;;3.20;2.55;;;;;;;-2.96;96.14;101582.13;6187407;23;20019;-58
2024/01/29 07:24:14;;;;;;;5.20;2.90;;;;;;;-3.01;96.65;101583.53;6193740;23;20384;-58
2024/01/29 07:26:46;;;;;;;6.13;3.13;;;;;;;-3.68;97.03;101484.13;6203069;23;20019;-61
2024/01/29 07:29:16;;;;;;;4.60;2.70;;;;;;;-3.14;97.47;101587.91;6187928;23;20406;-58
2024/01/29 07:31:48;;;;;;;4.20;2.72;;;;;;;-3.13;97.66;101589.66;6203823;23;20056;-61
2024/01/29 07:34:18;;;;;;;4.68;3.10;;;;;;;-3.12;98.29;101581.22;6188096;23;20028;-59
2024/01/29 07:36:49;;;;;;;6.00;3.35;;;;;;;-3.15;98.53;101587.81;6203065;23;20491;-58
2024/01/29 07:39:19;;;;;;;6.00;3.20;;;;;;;-3.22;98.48;101589.13;6187280;23;20404;-58
2024/01/29 07:41:51;;;;;;;4.95;3.20;;;;;;;-3.21;98.74;101590.88;6202341;23;20507;-59
2024/01/29 07:44:22;;;;;;;7.72;3.97;;;;;;;-3.22;98.73;101593.34;6187914;23;20553;-60
2024/01/29 07:46:52;;;;;;;6.10;4.20;;;;;;;-3.25;98.89;101588.94;6203186;23;20103;-58
2024/01/29 07:49:23;;;;;;;9.88;5.60;;;;;;;-3.26;99.52;101592.28;6186561;23;20028;-60
2024/01/29 07:51:53;;;;;;;10.05;5.25;;;;;;;-3.28;99.72;101594.75;6202157;23;20058;-60
2024/01/29 07:54:24;;;;;;;4.95;3.75;;;;;;;-3.34;100.00;101596.06;6187224;23;20457;-56
2024/01/29 07:56:56;;;;;;;6.88;3.40;;;;;;;-3.34;100.00;101589.28;6202295;23;20105;-58
2024/01/29 07:59:27;;;;;;;5.55;3.67;;;;;;;-3.34;100.00;101590.94;6187647;23;20044;-58
2024/01/29 08:01:57;;;;;;;7.72;4.05;;;;;;;-3.34;100.00;101584.16;6203234;23;20142;-60
2024/01/29 08:04:28;;;;;;;5.10;3.45;;;;;;;-3.34;100.00;101578.16;6187865;23;20016;-61
2024/01/29 08:06:59;;;;;;;5.78;3.45;;;;;;;-3.35;100.00;101571.28;6202534;23;20150;-58
2024/01/29 08:09:29;;;;;;;5.55;3.50;;;;;;;-3.28;100.00;101583.63;6187442;23;20036;-61
2024/01/29 08:12:01;;;;;;;6.43;3.63;;;;;;;-3.34;100.00;101588.41;6202022;23;20028;-59
2024/01/29 08:14:32;;;;;;;6.43;3.88;;;;;;;-3.36;100.00;101584.84;6187659;23;23170;-60
2024/01/29 08:17:02;;;;;;;5.53;3.60;;;;;;;-3.32;100.00;101597.91;6202991;23;20052;-60
2024/01/29 08:19:33;;;;;;;6.95;3.92;;;;;;;-3.30;100.00;101590.31;6187986;23;20033;-60
2024/01/29 08:22:03;;;;;;;9.10;4.97;;;;;;;-3.30;100.00;101590.31;6202136;23;20028;-60
2024/01/29 08:24:34;;;;;;;7.80;4.50;;;;;;;-3.37;100.00;101580.50;6189732;23;20076;-61
2024/01/29 08:27:07;;;;;;;7.10;4.22;;;;;;;-3.52;100.00;101553.25;6204115;23;20054;-62
2024/01/29 08:29:37;;;;;;;8.88;4.47;;;;;;;-3.41;100.00;101560.69;6189298;23;20106;-61
2024/01/29 08:32:08;;;;;;;9.23;4.50;;;;;;;-3.42;100.00;101559.81;6204659;23;20666;-58
2024/01/29 08:34:38;;;;;;;14.75;7.65;;;;;;;-3.37;100.00;101578.88;6189140;23;20020;-60
2024/01/29 08:37:09;;;;;;;6.38;4.35;;;;;;;-3.40;100.00;101577.78;6204299;23;20841;-60
2024/01/29 08:39:39;;;;;;;8.43;4.75;;;;;;;-3.39;100.00;101579.56;6188635;23;20024;-61
2024/01/29 08:42:11;;;;;;;9.70;4.97;;;;;;;-3.37;100.00;101577.97;6203493;23;20028;-60
2024/01/29 08:44:42;;;;;;;9.00;4.35;;;;;;;-3.33;100.00;101577.38;6188919;23;20058;-61
2024/01/29 08:47:12;;;;;;;10.13;5.13;;;;;;;-3.35;100.00;101573.81;6204040;23;20668;-61
2024/01/29 08:49:43;;;;;;;9.27;4.80;;;;;;;-3.66;100.00;101523.41;6189198;23;20127;-61
2024/01/29 08:52:13;;;;;;;9.40;4.70;;;;;;;-3.37;100.00;101567.72;6198735;23;20656;-59
2024/01/29 08:54:44;;;;;;;8.38;4.63;;;;;;;-3.48;100.00;101570.53;6204235;23;20024;-61
2024/01/29 08:57:16;;;;;;;7.32;4.65;;;;;;;-3.43;100.00;101580.16;6190868;23;20341;-58
2024/01/29 08:59:46;;;;;;;7.50;4.35;;;;;;;-3.38;100.00;101581.31;6204288;23;20119;-59
2024/01/29 09:02:17;;;;;;;9.27;5.25;;;;;;;-3.37;100.00;101583.06;6188537;23;20367;-61
2024/01/29 09:04:47;;;;;;;10.93;5.25;;;;;;;-3.33;100.00;101585.03;6205046;23;20086;-60
2024/01/29 09:07:18;;;;;;;8.02;4.55;;;;;;;-3.33;100.00;101590.16;6189074;23;20027;-60
2024/01/29 09:09:48;;;;;;;9.68;4.63;;;;;;;-3.40;100.00;101580.34;6204374;23;20112;-57
2024/01/29 09:12:21;;;;;;;7.28;4.15;;;;;;;-3.44;100.00;101580.91;6188408;23;20055;-57
2024/01/29 09:14:51;;;;;;;7.93;4.60;;;;;;;-3.48;100.00;101578.19;6204244;23;20086;-61
2024/01/29 09:17:21;;;;;;;8.05;4.47;;;;;;;-3.63;100.00;101569.59;6188571;23;20461;-59
2024/01/29 09:19:52;;;;;;;8.38;4.97;;;;;;;-3.56;100.00;101581.94;6204283;23;20114;-59
2024/01/29 09:22:23;;;;;;;10.15;4.93;;;;;;;-3.62;100.00;101576.47;6188828;23;20035;-62
2024/01/29 09:24:54;;;;;;;8.82;5.40;;;;;;;-3.63;100.00;101574.69;6204679;23;20519;-61
2024/01/29 09:27:26;;;;;;;7.68;4.45;;;;;;;-3.66;100.00;101578.75;6189959;23;20099;-58
2024/01/29 09:29:56;;;;;;;8.85;4.85;;;;;;;-3.68;100.00;101576.09;6203972;23;20079;-57
2024/01/29 09:32:27;;;;;;;10.63;4.88;;;;;;;-3.66;100.00;101574.50;6188532;23;20031;-62
2024/01/29 09:34:57;;;;;;;7.18;4.68;;;;;;;-4.48;100.00;101438.38;6204402;23;20035;-60
2024/01/29 09:37:28;;;;;;;9.68;4.90;;;;;;;-3.74;100.00;101570.59;6188717;23;20020;-60
2024/01/29 09:39:58;;;;;;;8.88;4.45;;;;;;;-3.79;100.00;101566.88;6203966;23;20020;-58
2024/01/29 09:42:35;;;;;;;12.05;5.93;;;;;;;-3.80;100.00;101565.97;6188110;23;20023;-60
2024/01/29 09:45:09;;;;;;;12.25;5.32;;;;;;;-3.81;100.00;101564.22;6202752;23;20139;-61
2024/01/29 09:47:41;;;;;;;9.45;6.10;;;;;;;-3.81;100.00;101568.47;6188387;23;20362;-58
2024/01/29 09:50:14;;;;;;;14.93;7.00;;;;;;;-3.76;100.00;101567.06;6203565;23;20070;-59
2024/01/29 09:52:45;;;;;;;11.52;6.53;;;;;;;-3.81;100.00;101551.47;6189421;23;20024;-59
2024/01/29 09:55:16;;;;;;;11.63;6.63;;;;;;;-3.71;100.00;101560.56;6188879;23;20024;-57
2024/01/29 09:57:48;;;;;;;10.43;6.20;;;;;;;-3.69;100.00;101559.00;6203785;23;20016;-59
2024/01/29 10:00:19;;;;;;;9.55;5.43;;;;;;;-3.66;100.00;101561.75;6188352;23;20083;-57
2024/01/29 10:02:55;;;;;;;10.57;5.88;;;;;;;-3.64;100.00;101556.72;6202399;23;20026;-59
2024/01/29 10:05:31;;;;;;;9.77;5.55;;;;;;;-3.65;100.00;101555.84;6188672;23;20586;-60
2024/01/29 10:08:02;;;;;;;19.02;7.93;;;;;;;-3.68;100.00;101550.53;6203151;23;20459;-60
2024/01/29 10:10:32;;;;;;;18.20;9.05;;;;;;;-3.64;100.00;101552.50;6188881;23;20419;-61
2024/01/29 10:13:09;;;;;;;14.10;7.35;;;;;;;-3.59;100.00;101555.34;6203388;23;20112;-60
2024/01/29 10:15:39;;;;;;;16.40;8.10;;;;;;;-3.58;100.00;101560.53;6188373;23;20831;-62
2024/01/29 10:18:12;;;;;;;19.13;8.25;;;;;;;-3.56;100.00;101566.63;6203299;23;20327;-58
2024/01/29 10:20:43;;;;;;;33.17;14.10;;;;;;;-3.54;100.00;101570.16;6187895;23;20024;-60
2024/01/29 10:23:13;;;;;;;25.02;11.73;;;;;;;-3.55;100.00;101573.47;6196905;23;20038;-60
2024/01/29 10:25:44;;;;;;;13.88;7.97;;;;;;;-3.54;100.00;101575.28;6203312;23;20024;-60
2024/01/29 10:28:16;;;;;;;12.57;6.10;;;;;;;-3.85;100.00;101530.72;6190453;23;20044;-62
2024/01/29 10:30:46;;;;;;;17.70;9.00;;;;;;;-3.54;100.00;101570.16;6202832;23;20465;-59
2024/01/29 10:33:17;;;;;;;16.40;9.98;;;;;;;-3.56;100.00;101569.19;6188268;23;20527;-61
2024/01/29 10:35:48;;;;;;;14.00;8.50;;;;;;;-3.53;100.00;101564.25;6203612;23;20393;-61
2024/01/29 10:38:22;;;;;;;13.32;7.72;;;;;;;-3.51;100.00;101570.34;6188039;23;20054;-61
2024/01/29 10:40:54;;;;;;;13.10;7.63;;;;;;;-3.49;100.00;101570.44;6203319;23;20047;-62
2024/01/29 10:43:34;;;;;;;17.80;8.73;;;;;;;-3.47;100.00;101572.31;6187977;23;20059;-58
2024/01/29 10:46:09;;;;;;;15.30;8.40;;;;;;;-3.45;100.00;101568.94;6202422;23;20044;-62
2024/01/29 10:48:40;;;;;;;17.58;11.20;;;;;;;-3.50;100.00;101561.88;6187278;23;20086;-62
2024/01/29 10:51:14;;;;;;;18.45;11.27;;;;;;;-3.51;100.00;101562.69;6202396;23;20050;-59
2024/01/29 10:53:45;;;;;;;15.32;8.68;;;;;;;-3.51;100.00;101564.34;6187904;23;20043;-61
2024/01/29 10:56:17;;;;;;;14.90;7.95;;;;;;;-3.76;100.00;101510.88;6187568;23;20546;-58
2024/01/29 10:58:57;;;;;;;15.40;7.78;;;;;;;-3.48;100.00;101550.06;6203541;23;20575;-61
2024/01/29 11:01:33;;;;;;;12.98;8.02;;;;;;;-3.47;100.00;101546.75;6187362;23;20479;-58
2024/01/29 11:04:05;;;;;;;21.00;12.23;;;;;;;-3.58;100.00;101534.97;6202198;23;20518;-60
2024/01/29 11:06:42;;;;;;;17.95;11.25;;;;;;;-3.81;100.00;101502.06;6187739;23;20127;-58
2024/01/29 11:09:15;;;;;;;14.10;7.97;;;;;;;-3.57;100.00;101543.53;6202143;23;20020;-58
2024/01/29 11:11:48;;;;;;;12.25;7.30;;;;;;;-3.55;100.00;101547.94;6187707;23;20089;-61
2024/01/29 11:14:24;;;;;;;13.82;6.72;;;;;;;-3.53;100.00;101541.25;6187529;23;20104;-61
2024/01/29 11:16:54;;;;;;;12.23;7.15;;;;;;;-3.47;100.00;101536.53;6203120;23;20047;-58
2024/01/29 11:19:29;;;;;;;13.63;7.20;;;;;;;-3.42;100.00;101543.56;6187538;23;20070;-61
2024/01/29 11:22:00;;;;;;;15.30;8.25;;;;;;;-3.57;100.00;101524.00;6202135;23;20468;-61
2024/01/29 11:24:33;;;;;;;13.80;7.85;;;;;;;-3.48;100.00;101534.75;6187718;23;20036;-59
2024/01/29 11:27:09;;;;;;;14.50;8.70;;;;;;;-3.45;100.00;101535.72;6202154;23;20031;-60
2024/01/29 11:29:41;;;;;;;13.60;7.30;;;;;;;-3.47;100.00;101536.53;6187012;23;20774;-62
2024/01/29 11:32:17;;;;;;;15.77;7.97;;;;;;;-3.44;100.00;101529.81;6202814;23;20054;-59
2024/01/29 11:34:47;;;;;;;16.77;8.13;;;;;;;-3.47;100.00;101531.41;6188435;23;20035;-58
2024/01/29 11:37:28;;;;;;;14.95;9.10;;;;;;;-3.50;100.00;101523.53;6187385;23;20027;-60